METAR Data
IDs: Format: Raw Decoded Include TAF

Data at: 0240 UTC 18 Jun 2019

PAFM 180156Z AUTO 20005KT 10SM OVC070 19/06 A2974 RMK AO2 SLP083 T01890061
PAFM 180056Z AUTO 15007KT 090V200 8SM BKN080 21/06 A2974 RMK AO2 SLP082 T02110061
PAFM 172356Z AUTO 05009G15KT 10SM BKN080 21/03 A2975 RMK AO2 SLP084 T02060028 10206 20144 53012
PAFM 172256Z AUTO 02016G22KT 10SM SCT085 19/03 A2972 RMK AO2 SLP074 T01940033
PAFM 172156Z AUTO 36017G23KT 10SM FEW080 18/03 A2972 RMK AO2 SLP073 T01830033
PAFM 172056Z AUTO 02018G27KT 10SM CLR 17/03 A2971 RMK AO2 PK WND 03028/2012 SLP072 T01720028 51004
PAFM 171956Z AUTO 02020G28KT 10SM CLR 16/02 A2971 RMK AO2 PK WND 03028/1950 SLP070 T01610022
PAFM 171856Z AUTO 03018G25KT 10SM CLR 16/03 A2971 RMK AO2 PK WND 01027/1804 SLP071 T01560028
PAFM 171756Z AUTO 02021G27KT 10SM CLR 14/03 A2970 RMK AO2 PK WND 36027/1748 SLP068 T01440028 10172 20139 56012
PAFM 171656Z AUTO 36014G24KT 10SM CLR 14/03 A2972 RMK AO2 PK WND 35028/1630 SLP073 T01440033
PAFM 171556Z AUTO 36019G25KT 10SM CLR 14/04 A2972 RMK AO2 PK WND 36026/1516 SLP073 T01440044
PAFM 171456Z AUTO 36016G21KT 10SM CLR 15/05 A2974 RMK AO2 SLP080 T01500050 53001
PAFM 171356Z AUTO 36019G26KT 10SM CLR 16/05 A2973 RMK AO2 PK WND 36026/1356 SLP076 T01610050
PAFM 171256Z AUTO 01011G22KT 10SM CLR 17/04 A2973 RMK AO2 SLP078 T01670044
PAFM 171156Z AUTO 01015G19KT 10SM CLR 17/03 A2973 RMK AO2 SLP078 T01670033 10217 20167 55003
PAFM 170956Z AUTO 01017G23KT 10SM CLR 18/02 A2973 RMK AO2 SLP078 T01830022
PAFM 170856Z AUTO 01012G18KT 10SM CLR 18/02 A2974 RMK AO2 SLP082 T01830022 55005
PAFM 170756Z AUTO 36017G20KT 10SM CLR 19/03 A2974 RMK AO2 SLP080 T01940028 402440100
PAFM 170656Z AUTO 01013G17KT 10SM CLR 21/02 A2975 RMK AO2 SLP082 T02060017
PAFM 170556Z AUTO 34009KT 10SM CLR 22/02 A2976 RMK AO2 SLP087 T02170022 10244 20217 56007
PAFM 170456Z AUTO 01011G17KT 10SM CLR 23/03 A2976 RMK AO2 SLP088 T02280028
PAFM 170356Z AUTO 35011KT 10SM CLR 23/04 A2977 RMK AO2 SLP091 T02330044
PAFM 170256Z AUTO VRB03KT 10SM CLR 24/06 A2978 RMK AO2 SLP095 T02390056 56018
PAFM 170156Z AUTO VRB04KT 10SM CLR 24/06 A2979 RMK AO2 SLP099 T02440061
PAFM 170056Z AUTO 26007KT 10SM CLR 24/06 A2981 RMK AO2 SLP106 T02390056
PAFM 162356Z AUTO VRB05KT 10SM CLR 23/05 A2983 RMK AO2 SLP114 T02280050 10233 20178 58014
PAFM 162256Z AUTO VRB04KT 10SM CLR 22/06 A2985 RMK AO2 SLP119 T02220056
PAFM 162156Z AUTO VRB04KT 10SM CLR 22/06 A2986 RMK AO2 SLP124 T02170056
PAFM 162056Z AUTO 20005KT 10SM CLR 22/06 A2987 RMK AO2 SLP127 T02170056 58010
PAFM 161956Z AUTO VRB03KT 10SM CLR 19/04 A2989 RMK AO2 SLP131 T01940044
PAFM 161856Z AUTO 01004KT 10SM CLR 19/04 A2990 RMK AO2 SLP134 T01890044
PAFM 161756Z AUTO VRB04KT 10SM CLR 18/04 A2990 RMK AO2 SLP137 T01780039 10178 20111 56005
PAFM 161656Z AUTO 02006KT 10SM CLR 16/04 A2991 RMK AO2 SLP139 T01610044
PAFM 161556Z AUTO 02008KT 10SM CLR 14/04 A2991 RMK AO2 SLP140 T01440039
PAFM 161456Z AUTO 02005KT 10SM CLR 13/04 A2992 RMK AO2 SLP143 T01330039 55003